Kezdőlap
METAR-TAF:

METAR-TAF

Repülőterek :

Bornholmi repülőtér

Rønne, Dánia

földrajzi szélesség: 55-04N, földrajzi hosszúság: 014-45E, magasság: 16 m

Jelenlegi meteorológiai megfigyelések

A jelentés 43 perccel ezelõtt készült, 02:50 UTC
Keleti szél 11 kt
Hőmérséklet 15°C
Páratartalom 72%
Légköri nyomás 1008 hPa
Látótávolság 10 km, vagy több

METAR: EKRN 150250Z AUTO 10011KT 9999 BKN067/// BKN100/// 15/10 Q1008

Idő: 05:33 (03:33 UTC)

Előrejelzés

A jelentés 1 órával és 10 perccel ezelõtt készült, 02:23 UTC
Az előrejelzés 15-én 03 óra UTC és 15-én 12 óra UTC között érvényes
Kelet-délkeleti szél 12 kt
Látótávolság 10 km, vagy több
Kevés felhő 3000 lábon
Szakadozott felhőzet 7000 lábon
15-én 11 óra UTC és 15-én 12 óra UTC között ideiglenes
Látótávolság: 3000 m
Szakadozott felhőzet 1200 lábon
esõ,

TAF: EKRN 150223Z 1503/1512 12012KT 9999 FEW030 BKN070 TEMPO 1511/1512 3000 RA BKN012

Meteorológiai megfigyelések és előrejelzések több, mint 4000 repülőtéren (METAR és TAF jelentéseket).

A térképen piros és sárga pontok jelzik az elérhető meteorológiai állomásokat.

Mozgassa az egeret a pont fölött, hogy megjelenjen az állomás neve.

Azután kattintson az időjárási megfigyelések és előrejelzések megtekintéséhez.

A térkép megváltoztatása: kattintson a fekete keresztel jelölt zöld gombra ráközelítéshez, a vonallal jelölt zöld gombra távolításhoz, vagy a zöld nyilakra a szomszédos térképek eléréséhez.


METAR-TAF: